首页
METAR-TAF:

METAR-TAF

机场 :

贝灵厄姆, 华盛顿, 美国

纬度: 48-47-58N, 经度: 122-32-21W, 海拔: 48米

当前天气观测

该预报发布于40分钟前的00:53 UTC
风速9节,风向
温度 13°C
湿度 54%
气压 1024 hPa
能見度: 16.1公里
天空无云

METAR: KBLI 080053Z 19009KT 10SM CLR 13/04 A3023 RMK AO2 SLP244 T01280044

时间: 18:33 (01:33 UTC)

预报

该预报发布于1小时和55分钟前的23:38 UTC
预报有效从08日的 00点(UTC)到 08日的 24点(UTC)
风速9节,风向
能見度: 10公里
散云层高于3000英尺
散云层高于6000英尺
从 08日的 0700点(UTC)
风速6节,风向
能見度: 10公里
阴天层高于5000英尺
从 08日的 1700点(UTC)
风速9节,风向,有时为15节阵风
能見度: 10公里
阴天层高于5000英尺

TAF: KBLI 072338Z 0800/0824 18009KT P6SM SCT030 SCT060 FM080700 17006KT P6SM OVC050 FM081700 17009G15KT P6SM OVC050

超过4000个机场的气象观测和天气预报(METAR&TAF报告)。

可查询的气象台以黄色和红色小点在地图上表示。

将鼠标移到小点上方,可查看气象台名称。

然后点击查看天气观测和预报。

如需切换地图:点击带黑十字的绿色按钮放大地图;点击带横线的绿色按钮缩小地图;或者点击绿色箭头查看邻近地区的地图。


METAR-TAF: